Time;durP1;ratioP1;P1;durP2;ratioP2;P2;SDS_P1;SDS_P2;PMS_P1;PMS_P2;Temp;Humidity;BMP_temperature;BMP_pressure;BME280_temperature;BME280_humidity;BME280_pressure;Samples;Min_cycle;Max_cycle;Signal;HPM_P1;HPM_P2
2023/07/16 00:00:23;;;;;;;4.50;2.10;;;;;;;;;;5081665;28;20969;-63
2023/07/16 00:02:49;;;;;;;2.70;1.90;;;;;;;;;;5081237;28;20448;-63
2023/07/16 00:05:16;;;;;;;2.70;2.03;;;;;;;;;;5081124;28;20463;-63
2023/07/16 00:07:42;;;;;;;6.47;2.00;;;;;;;;;;5081846;28;20486;-63
2023/07/16 00:10:09;;;;;;;4.73;2.07;;;;;;;;;;5081737;28;20452;-63
2023/07/16 00:12:35;;;;;;;3.37;1.97;;;;;;;;;;5082022;28;20474;-63
2023/07/16 00:15:02;;;;;;;4.93;2.30;;;;;;;;;;5081489;28;20444;-63
2023/07/16 00:17:30;;;;;;;2.30;1.70;;;;;;;;;;5081570;28;20987;-63
2023/07/16 00:19:56;;;;;;;3.40;1.80;;;;;;;;;;5081434;28;20490;-63
2023/07/16 00:22:22;;;;;;;4.40;2.40;;;;;;;;;;5081155;28;20511;-64
2023/07/16 00:24:49;;;;;;;6.50;2.10;;;;;;;;;;5081425;28;20484;-63
2023/07/16 00:27:15;;;;;;;4.50;1.90;;;;;;;;;;5081674;28;20541;-61
2023/07/16 00:29:42;;;;;;;3.23;2.10;;;;;;;;;;5081386;28;20475;-61
2023/07/16 00:32:08;;;;;;;2.87;1.70;;;;;;;;;;5081438;28;20476;-61
2023/07/16 00:34:36;;;;;;;1.90;1.70;;;;;;;;;;5081044;28;20518;-61
2023/07/16 00:37:03;;;;;;;5.23;2.13;;;;;;;;;;5080178;28;20484;-61
2023/07/16 00:39:29;;;;;;;4.30;2.00;;;;;;;;;;5077244;28;20464;-61
2023/07/16 00:41:56;;;;;;;3.17;1.87;;;;;;;;;;5081042;28;20519;-61
2023/07/16 00:44:22;;;;;;;4.27;2.00;;;;;;;;;;5080594;28;20467;-61
2023/07/16 00:46:48;;;;;;;3.27;1.97;;;;;;;;;;5081304;28;20448;-61
2023/07/16 00:49:15;;;;;;;2.67;2.00;;;;;;;;;;5080900;28;20444;-61
2023/07/16 00:51:43;;;;;;;3.93;2.43;;;;;;;;;;5079948;28;21002;-61
2023/07/16 00:54:09;;;;;;;4.53;2.27;;;;;;;;;;5081012;28;20448;-62
2023/07/16 00:56:37;;;;;;;2.70;1.60;;;;;;;;;;5081050;28;20463;-61
2023/07/16 00:59:04;;;;;;;3.03;2.33;;;;;;;;;;5081041;28;20517;-61
2023/07/16 01:01:30;;;;;;;2.37;1.60;;;;;;;;;;5080610;28;20537;-61
2023/07/16 01:03:56;;;;;;;3.70;2.03;;;;;;;;;;5080638;28;20487;-61
2023/07/16 01:06:26;;;;;;;3.83;2.40;;;;;;;;;;5079522;28;20455;-61
2023/07/16 01:08:57;;;;;;;4.80;2.37;;;;;;;;;;5081080;28;20468;-61
2023/07/16 01:11:24;;;;;;;2.80;2.00;;;;;;;;;;5080570;28;20514;-61
2023/07/16 01:13:51;;;;;;;4.00;2.13;;;;;;;;;;5080573;28;20467;-61
2023/07/16 01:16:21;;;;;;;4.10;2.13;;;;;;;;;;5069450;28;20472;-61
2023/07/16 01:18:47;;;;;;;2.80;1.80;;;;;;;;;;5080666;28;20454;-62
2023/07/16 01:21:14;;;;;;;3.47;2.20;;;;;;;;;;5080225;28;20551;-61
2023/07/16 01:23:51;;;;;;;3.40;1.90;;;;;;;;;;5080248;28;20479;-61
2023/07/16 01:26:33;;;;;;;3.90;2.43;;;;;;;;;;5080262;28;20520;-61
2023/07/16 01:29:22;;;;;;;2.70;2.10;;;;;;;;;;5080293;28;20544;-61
2023/07/16 01:31:50;;;;;;;5.60;1.73;;;;;;;;;;5080456;28;20459;-61
2023/07/16 01:34:17;;;;;;;5.30;2.40;;;;;;;;;;5079885;28;20487;-61
2023/07/16 01:36:44;;;;;;;2.90;1.93;;;;;;;;;;5079169;28;20483;-61
2023/07/16 01:39:10;;;;;;;3.40;2.07;;;;;;;;;;5080202;28;20546;-62
2023/07/16 01:41:37;;;;;;;2.97;2.20;;;;;;;;;;5080247;28;20578;-62
2023/07/16 01:44:03;;;;;;;3.60;2.20;;;;;;;;;;5079830;28;20798;-61
2023/07/16 01:46:31;;;;;;;3.90;1.90;;;;;;;;;;5080405;28;20478;-61
2023/07/16 01:48:57;;;;;;;3.47;2.37;;;;;;;;;;5079461;28;20707;-61
2023/07/16 01:51:24;;;;;;;3.20;2.03;;;;;;;;;;5079155;28;20875;-61
2023/07/16 01:53:50;;;;;;;3.50;2.40;;;;;;;;;;5080061;28;20437;-61
2023/07/16 01:56:17;;;;;;;3.00;2.03;;;;;;;;;;5080017;28;20448;-61
2023/07/16 01:58:43;;;;;;;6.10;2.40;;;;;;;;;;5079952;28;20447;-61
2023/07/16 02:01:10;;;;;;;7.30;1.70;;;;;;;;;;5079730;28;20515;-61
2023/07/16 02:03:37;;;;;;;5.57;2.30;;;;;;;;;;5073978;28;20443;-61
2023/07/16 02:06:04;;;;;;;3.20;1.80;;;;;;;;;;5078870;28;20482;-61
2023/07/16 02:08:30;;;;;;;5.30;2.77;;;;;;;;;;5079636;28;20490;-61
2023/07/16 02:10:56;;;;;;;4.37;1.93;;;;;;;;;;5079653;28;20476;-61
2023/07/16 02:13:23;;;;;;;3.73;1.90;;;;;;;;;;5079378;28;20444;-61
2023/07/16 02:15:49;;;;;;;3.50;2.27;;;;;;;;;;5079096;28;21028;-61
2023/07/16 02:18:16;;;;;;;5.47;2.60;;;;;;;;;;5079290;28;20516;-61
2023/07/16 02:20:44;;;;;;;3.43;2.20;;;;;;;;;;5078693;28;20554;-61
2023/07/16 02:23:10;;;;;;;3.77;2.23;;;;;;;;;;5078851;28;20495;-61
2023/07/16 02:25:36;;;;;;;4.50;2.10;;;;;;;;;;5079774;28;20479;-61
2023/07/16 02:28:03;;;;;;;3.00;2.00;;;;;;;;;;5079157;28;20526;-61
2023/07/16 02:30:29;;;;;;;3.73;2.20;;;;;;;;;;5079647;28;20501;-62
2023/07/16 02:32:56;;;;;;;5.73;2.00;;;;;;;;;;5079374;28;20483;-61
2023/07/16 02:35:22;;;;;;;3.90;1.90;;;;;;;;;;5078816;28;20558;-61
2023/07/16 02:37:51;;;;;;;3.80;2.30;;;;;;;;;;5078787;28;20447;-61
2023/07/16 02:40:17;;;;;;;5.70;2.63;;;;;;;;;;5079147;28;20484;-61
2023/07/16 02:42:44;;;;;;;4.10;2.00;;;;;;;;;;5079028;28;20551;-61
2023/07/16 02:45:10;;;;;;;2.93;2.00;;;;;;;;;;5073258;28;20896;-61
2023/07/16 02:47:37;;;;;;;4.43;2.50;;;;;;;;;;5079308;28;20519;-61
2023/07/16 02:50:03;;;;;;;2.43;2.23;;;;;;;;;;5079113;28;20462;-61
2023/07/16 02:52:29;;;;;;;4.33;2.40;;;;;;;;;;5078705;28;20522;-61
2023/07/16 02:54:57;;;;;;;6.50;2.90;;;;;;;;;;5079527;28;20550;-61
2023/07/16 02:57:24;;;;;;;7.60;2.60;;;;;;;;;;5079027;28;20484;-61
2023/07/16 02:59:50;;;;;;;4.93;2.43;;;;;;;;;;5078964;28;20460;-61
2023/07/16 03:02:16;;;;;;;4.13;2.80;;;;;;;;;;5079188;28;20584;-61
2023/07/16 03:04:43;;;;;;;5.63;2.57;;;;;;;;;;5079508;28;20479;-62
2023/07/16 03:07:09;;;;;;;2.83;2.43;;;;;;;;;;5077873;28;20499;-61
2023/07/16 03:09:35;;;;;;;5.93;2.13;;;;;;;;;;5079241;28;20444;-62
2023/07/16 03:12:03;;;;;;;4.50;2.00;;;;;;;;;;5078955;28;20443;-61
2023/07/16 03:14:30;;;;;;;5.97;2.60;;;;;;;;;;5078882;28;20507;-61
2023/07/16 03:16:56;;;;;;;4.00;2.67;;;;;;;;;;5079337;28;20475;-61
2023/07/16 03:19:22;;;;;;;4.17;2.70;;;;;;;;;;5078896;28;20467;-61
2023/07/16 03:21:49;;;;;;;4.20;2.73;;;;;;;;;;5078279;28;20504;-61
2023/07/16 03:24:16;;;;;;;4.60;2.83;;;;;;;;;;5078531;28;21007;-61
2023/07/16 03:26:42;;;;;;;4.70;2.90;;;;;;;;;;5078662;28;20475;-62
2023/07/16 03:29:11;;;;;;;6.70;2.83;;;;;;;;;;5078540;28;20448;-62
2023/07/16 03:31:37;;;;;;;6.30;3.00;;;;;;;;;;5078853;28;20456;-61
2023/07/16 03:34:04;;;;;;;5.93;2.30;;;;;;;;;;5075738;28;21024;-61
2023/07/16 03:36:30;;;;;;;4.30;2.77;;;;;;;;;;5077640;28;20452;-62
2023/07/16 03:38:56;;;;;;;3.73;3.03;;;;;;;;;;5080343;28;20480;-61
2023/07/16 03:41:23;;;;;;;6.80;2.67;;;;;;;;;;5082389;28;20544;-62
2023/07/16 03:43:49;;;;;;;4.97;2.60;;;;;;;;;;5081642;28;20866;-61
2023/07/16 03:46:17;;;;;;;5.50;2.50;;;;;;;;;;5082196;28;20536;-61
2023/07/16 03:48:43;;;;;;;4.10;2.37;;;;;;;;;;5082265;28;21007;-61
2023/07/16 03:51:10;;;;;;;4.83;2.43;;;;;;;;;;5081535;28;20483;-62
2023/07/16 03:53:36;;;;;;;4.73;2.37;;;;;;;;;;5082343;28;20519;-61
2023/07/16 03:56:02;;;;;;;3.97;2.67;;;;;;;;;;5082317;28;20490;-61
2023/07/16 03:58:29;;;;;;;4.50;3.03;;;;;;;;;;5082080;28;20876;-61
2023/07/16 04:00:55;;;;;;;3.80;2.30;;;;;;;;;;5082041;28;20469;-61
2023/07/16 04:03:23;;;;;;;2.97;2.30;;;;;;;;;;5081558;28;20503;-61
2023/07/16 04:05:50;;;;;;;3.70;2.03;;;;;;;;;;5080617;28;20931;-61
2023/07/16 04:08:16;;;;;;;4.00;2.50;;;;;;;;;;5081377;28;20509;-61
2023/07/16 04:10:43;;;;;;;4.80;2.80;;;;;;;;;;5081743;28;20459;-62
2023/07/16 04:13:09;;;;;;;4.10;2.70;;;;;;;;;;5081635;28;20486;-62
2023/07/16 04:15:35;;;;;;;3.93;2.70;;;;;;;;;;5081900;28;20765;-62
2023/07/16 04:18:03;;;;;;;5.40;2.60;;;;;;;;;;5081530;28;20495;-62
2023/07/16 04:20:33;;;;;;;4.43;2.40;;;;;;;;;;5081120;28;20484;-62
2023/07/16 04:22:59;;;;;;;4.60;2.30;;;;;;;;;;5081199;28;20472;-62
2023/07/16 04:25:26;;;;;;;5.00;2.40;;;;;;;;;;5081753;28;20472;-62
2023/07/16 04:27:52;;;;;;;4.13;2.07;;;;;;;;;;5081537;28;20523;-62
2023/07/16 04:30:19;;;;;;;5.83;2.47;;;;;;;;;;5080903;28;20539;-62
2023/07/16 04:32:45;;;;;;;3.20;2.10;;;;;;;;;;5081703;28;20569;-62
2023/07/16 04:35:11;;;;;;;4.97;2.27;;;;;;;;;;5080313;28;20483;-62
2023/07/16 04:37:39;;;;;;;4.20;2.53;;;;;;;;;;5080888;28;20472;-61
2023/07/16 04:40:06;;;;;;;5.00;2.50;;;;;;;;;;5080995;28;20894;-61
2023/07/16 04:42:33;;;;;;;5.97;2.73;;;;;;;;;;5080876;28;20520;-62
2023/07/16 04:44:59;;;;;;;5.63;2.13;;;;;;;;;;5080971;28;20497;-62
2023/07/16 04:47:25;;;;;;;3.30;2.40;;;;;;;;;;5081252;28;20520;-62
2023/07/16 04:49:52;;;;;;;3.23;2.00;;;;;;;;;;5080870;28;20490;-62
2023/07/16 04:52:18;;;;;;;5.43;2.00;;;;;;;;;;5080617;28;20994;-62
2023/07/16 04:54:46;;;;;;;2.80;2.00;;;;;;;;;;5081547;28;20450;-62
2023/07/16 04:57:12;;;;;;;4.80;2.53;;;;;;;;;;5080837;28;20455;-62
2023/07/16 04:59:39;;;;;;;4.93;2.10;;;;;;;;;;5081308;28;20479;-62
2023/07/16 05:02:06;;;;;;;3.83;1.80;;;;;;;;;;5080674;28;20544;-62
2023/07/16 05:04:32;;;;;;;4.93;2.37;;;;;;;;;;5080776;28;20508;-62
2023/07/16 05:06:59;;;;;;;4.50;1.77;;;;;;;;;;5079293;28;20476;-63
2023/07/16 05:09:25;;;;;;;7.57;1.80;;;;;;;;;;5080520;28;20455;-62
2023/07/16 05:11:53;;;;;;;6.57;2.97;;;;;;;;;;5080701;28;20479;-62
2023/07/16 05:14:19;;;;;;;3.67;1.90;;;;;;;;;;5080560;28;20471;-62
2023/07/16 05:16:46;;;;;;;3.50;2.07;;;;;;;;;;5080558;28;20519;-62
2023/07/16 05:19:12;;;;;;;2.60;1.60;;;;;;;;;;5080200;28;20488;-62
2023/07/16 05:21:38;;;;;;;6.43;2.33;;;;;;;;;;5079639;28;20853;-62
2023/07/16 05:24:05;;;;;;;2.80;1.87;;;;;;;;;;5080840;28;20527;-62
2023/07/16 05:26:33;;;;;;;3.53;1.70;;;;;;;;;;5080280;28;20476;-62
2023/07/16 05:29:00;;;;;;;4.50;2.00;;;;;;;;;;5080280;28;20470;-62
2023/07/16 05:31:27;;;;;;;4.70;2.40;;;;;;;;;;5079928;28;21035;-62
2023/07/16 05:33:53;;;;;;;5.20;1.97;;;;;;;;;;5076284;28;20467;-62
2023/07/16 05:36:19;;;;;;;5.60;2.00;;;;;;;;;;5079202;28;20507;-62
2023/07/16 05:38:46;;;;;;;4.27;2.00;;;;;;;;;;5080015;28;20953;-62
2023/07/16 05:41:12;;;;;;;3.87;2.00;;;;;;;;;;5079969;28;20519;-62
2023/07/16 05:43:39;;;;;;;6.90;2.00;;;;;;;;;;5076945;28;20989;-62
2023/07/16 05:46:06;;;;;;;7.03;2.50;;;;;;;;;;5080454;28;20443;-62
2023/07/16 05:48:33;;;;;;;4.17;2.50;;;;;;;;;;5079675;28;20519;-62
2023/07/16 05:50:59;;;;;;;7.60;2.53;;;;;;;;;;5079531;28;20531;-62
2023/07/16 05:53:25;;;;;;;6.00;2.30;;;;;;;;;;5079697;28;20471;-62
2023/07/16 05:55:52;;;;;;;4.67;2.30;;;;;;;;;;5079628;28;20452;-62
2023/07/16 05:58:18;;;;;;;4.73;2.20;;;;;;;;;;5080039;28;20458;-62
2023/07/16 06:00:45;;;;;;;4.67;2.40;;;;;;;;;;5078492;28;20922;-62
2023/07/16 06:03:12;;;;;;;6.13;2.57;;;;;;;;;;5079758;28;20479;-62
2023/07/16 06:05:39;;;;;;;6.27;2.40;;;;;;;;;;5078440;28;20475;-62
2023/07/16 06:08:05;;;;;;;8.20;2.77;;;;;;;;;;5079666;28;20486;-62
2023/07/16 06:10:34;;;;;;;6.60;2.90;;;;;;;;;;5079191;28;20523;-62
2023/07/16 06:13:00;;;;;;;5.10;3.10;;;;;;;;;;5079588;28;20531;-62
2023/07/16 06:15:27;;;;;;;4.73;2.73;;;;;;;;;;5079502;28;20452;-63
2023/07/16 06:17:53;;;;;;;4.80;3.23;;;;;;;;;;5079613;28;20805;-62
2023/07/16 06:20:21;;;;;;;5.43;3.10;;;;;;;;;;5079353;28;20448;-62
2023/07/16 06:22:47;;;;;;;4.40;2.90;;;;;;;;;;5079169;28;20578;-62
2023/07/16 06:25:13;;;;;;;4.83;3.00;;;;;;;;;;5079666;28;20515;-62
2023/07/16 06:27:40;;;;;;;6.73;3.37;;;;;;;;;;5079349;28;20475;-62
2023/07/16 06:30:07;;;;;;;8.90;3.20;;;;;;;;;;5079097;28;20876;-62
2023/07/16 06:32:33;;;;;;;7.13;3.70;;;;;;;;;;5079089;28;20479;-62
2023/07/16 06:35:00;;;;;;;5.93;3.40;;;;;;;;;;5078755;28;20507;-62
2023/07/16 06:37:27;;;;;;;4.17;3.20;;;;;;;;;;5078684;28;21000;-62
2023/07/16 06:39:54;;;;;;;6.30;3.20;;;;;;;;;;5079403;28;20484;-61
2023/07/16 06:42:20;;;;;;;5.20;3.10;;;;;;;;;;5079452;28;20461;-62
2023/07/16 06:44:47;;;;;;;9.30;3.30;;;;;;;;;;5078657;28;20964;-64
2023/07/16 06:47:13;;;;;;;5.07;3.20;;;;;;;;;;5079374;28;20508;-62
2023/07/16 06:49:39;;;;;;;7.57;3.23;;;;;;;;;;5079045;28;20543;-62
2023/07/16 06:52:06;;;;;;;9.20;4.10;;;;;;;;;;5078453;28;20456;-62
2023/07/16 06:54:34;;;;;;;8.30;3.63;;;;;;;;;;5079101;28;20542;-62
2023/07/16 06:57:00;;;;;;;7.47;3.37;;;;;;;;;;5078608;28;20452;-62
2023/07/16 06:59:27;;;;;;;5.60;3.10;;;;;;;;;;5073207;28;20537;-62
2023/07/16 07:01:53;;;;;;;7.00;3.07;;;;;;;;;;5080010;28;20523;-62
2023/07/16 07:04:20;;;;;;;5.80;3.17;;;;;;;;;;5080032;28;20503;-62
2023/07/16 07:06:46;;;;;;;7.80;3.43;;;;;;;;;;5078452;28;20491;-63
2023/07/16 07:09:12;;;;;;;7.47;3.90;;;;;;;;;;5079679;28;20482;-62
2023/07/16 07:11:40;;;;;;;7.77;3.97;;;;;;;;;;5077741;28;20463;-62
2023/07/16 07:14:06;;;;;;;6.50;3.17;;;;;;;;;;5083792;28;20475;-62
2023/07/16 07:16:33;;;;;;;9.13;3.73;;;;;;;;;;5083845;28;20467;-62
2023/07/16 07:18:59;;;;;;;5.80;3.73;;;;;;;;;;5084146;28;20503;-63
2023/07/16 07:21:25;;;;;;;6.33;3.53;;;;;;;;;;5083085;28;21180;-63
2023/07/16 07:23:52;;;;;;;6.90;4.10;;;;;;;;;;5083473;28;20555;-62
2023/07/16 07:26:18;;;;;;;5.63;4.03;;;;;;;;;;5083775;28;20486;-62
2023/07/16 07:28:46;;;;;;;11.00;4.37;;;;;;;;;;5083210;28;20476;-62
2023/07/16 07:31:12;;;;;;;7.67;4.70;;;;;;;;;;5083464;28;20508;-63
2023/07/16 07:33:39;;;;;;;5.77;3.47;;;;;;;;;;5079837;28;20464;-62
2023/07/16 07:36:05;;;;;;;7.23;4.13;;;;;;;;;;5080032;28;20494;-62
2023/07/16 07:38:32;;;;;;;6.80;4.47;;;;;;;;;;5079078;28;20475;-62
2023/07/16 07:40:58;;;;;;;10.17;4.13;;;;;;;;;;5081841;28;20552;-62
2023/07/16 07:43:24;;;;;;;7.00;3.60;;;;;;;;;;5082269;28;20550;-62
2023/07/16 07:45:52;;;;;;;6.57;4.27;;;;;;;;;;5081891;28;20479;-63
2023/07/16 07:48:18;;;;;;;5.27;3.70;;;;;;;;;;5082399;28;20505;-63
2023/07/16 07:50:47;;;;;;;5.40;3.30;;;;;;;;;;5082182;28;20483;-63
2023/07/16 07:53:14;;;;;;;5.80;3.33;;;;;;;;;;5081735;28;20483;-62
2023/07/16 07:55:41;;;;;;;6.47;3.80;;;;;;;;;;5082507;28;20448;-62
2023/07/16 07:58:07;;;;;;;7.83;3.63;;;;;;;;;;5082433;28;20511;-62
2023/07/16 08:00:33;;;;;;;6.20;3.50;;;;;;;;;;5081089;28;20484;-62
2023/07/16 08:03:01;;;;;;;5.97;3.60;;;;;;;;;;5082600;28;20514;-62
2023/07/16 08:05:28;;;;;;;7.80;4.03;;;;;;;;;;5081337;28;20459;-62
2023/07/16 08:07:55;;;;;;;8.37;3.70;;;;;;;;;;5081447;28;20517;-62
2023/07/16 08:10:21;;;;;;;5.23;3.97;;;;;;;;;;5081927;28;20459;-62
2023/07/16 08:12:48;;;;;;;7.70;4.23;;;;;;;;;;5081845;28;20480;-62
2023/07/16 08:15:14;;;;;;;11.43;3.63;;;;;;;;;;5081255;28;20542;-62
2023/07/16 08:17:41;;;;;;;7.47;3.57;;;;;;;;;;5082380;28;20447;-62
2023/07/16 08:20:10;;;;;;;7.03;4.50;;;;;;;;;;5081403;28;20480;-62
2023/07/16 08:22:36;;;;;;;6.23;3.60;;;;;;;;;;5081085;28;20459;-62
2023/07/16 08:25:03;;;;;;;7.50;3.77;;;;;;;;;;5081011;28;20482;-63
2023/07/16 08:27:29;;;;;;;7.93;4.20;;;;;;;;;;5082120;28;20439;-62
2023/07/16 08:29:56;;;;;;;5.90;3.40;;;;;;;;;;5081136;28;21121;-63
2023/07/16 08:32:22;;;;;;;5.50;3.50;;;;;;;;;;5081751;28;20479;-62
2023/07/16 08:34:49;;;;;;;4.90;3.60;;;;;;;;;;5081224;28;20554;-62
2023/07/16 08:37:17;;;;;;;8.63;4.33;;;;;;;;;;5080306;28;20503;-63
2023/07/16 08:39:43;;;;;;;6.90;3.97;;;;;;;;;;5081738;28;20483;-64
2023/07/16 08:42:10;;;;;;;6.43;3.60;;;;;;;;;;5075181;28;20522;-63
2023/07/16 08:44:37;;;;;;;6.87;4.47;;;;;;;;;;5076392;28;20540;-63
2023/07/16 08:47:03;;;;;;;6.10;3.90;;;;;;;;;;5076643;28;20480;-63
2023/07/16 08:49:30;;;;;;;5.60;3.80;;;;;;;;;;5077931;28;20502;-63
2023/07/16 08:51:57;;;;;;;7.70;3.87;;;;;;;;;;5080519;28;20463;-63
2023/07/16 08:54:25;;;;;;;4.87;3.50;;;;;;;;;;5080927;28;20479;-63
2023/07/16 08:56:52;;;;;;;7.40;3.40;;;;;;;;;;5081517;28;20452;-63
2023/07/16 08:59:19;;;;;;;6.30;4.00;;;;;;;;;;5081302;28;20543;-63
2023/07/16 09:01:47;;;;;;;7.20;3.37;;;;;;;;;;5080708;28;20523;-63
2023/07/16 09:04:13;;;;;;;4.63;3.40;;;;;;;;;;5081246;28;20475;-63
2023/07/16 09:06:40;;;;;;;5.50;3.33;;;;;;;;;;5079764;28;20456;-63
2023/07/16 09:09:06;;;;;;;9.37;4.13;;;;;;;;;;5080675;28;20682;-63
2023/07/16 09:11:35;;;;;;;7.50;4.10;;;;;;;;;;5080776;28;20490;-63
2023/07/16 09:14:02;;;;;;;6.10;3.90;;;;;;;;;;5080824;28;20968;-63
2023/07/16 09:16:33;;;;;;;9.00;4.40;;;;;;;;;;5080143;28;20523;-63
2023/07/16 09:19:06;;;;;;;4.80;3.17;;;;;;;;;;5075022;28;20479;-63
2023/07/16 09:21:33;;;;;;;6.97;3.80;;;;;;;;;;5080500;28;21090;-63
2023/07/16 09:24:00;;;;;;;5.57;3.80;;;;;;;;;;5080090;28;21012;-63
2023/07/16 09:26:26;;;;;;;5.40;3.37;;;;;;;;;;5080752;28;20529;-63
2023/07/16 09:28:54;;;;;;;9.30;3.77;;;;;;;;;;5080946;28;20452;-63
2023/07/16 09:31:20;;;;;;;6.00;3.43;;;;;;;;;;5080017;28;20528;-63
2023/07/16 09:33:47;;;;;;;4.90;3.37;;;;;;;;;;5080408;28;20499;-63
2023/07/16 09:36:14;;;;;;;7.47;4.00;;;;;;;;;;5077972;28;20515;-62
2023/07/16 09:38:41;;;;;;;6.67;4.17;;;;;;;;;;5079778;28;20476;-63
2023/07/16 09:41:08;;;;;;;6.20;3.93;;;;;;;;;;5080061;28;20539;-63
2023/07/16 09:43:34;;;;;;;5.20;3.63;;;;;;;;;;5079801;28;20570;-63
2023/07/16 09:46:02;;;;;;;6.30;3.67;;;;;;;;;;5080060;28;20463;-63
2023/07/16 09:48:28;;;;;;;6.37;3.70;;;;;;;;;;5080429;28;21220;-63
2023/07/16 09:50:56;;;;;;;4.30;3.90;;;;;;;;;;5079821;28;20487;-63
2023/07/16 09:53:23;;;;;;;8.50;4.20;;;;;;;;;;5079235;28;20586;-63
2023/07/16 09:55:49;;;;;;;8.17;4.10;;;;;;;;;;5080361;28;21001;-63
2023/07/16 09:58:19;;;;;;;7.43;3.83;;;;;;;;;;5080327;28;20777;-63
2023/07/16 10:00:47;;;;;;;4.30;3.60;;;;;;;;;;5079200;28;20456;-63
2023/07/16 10:03:15;;;;;;;7.97;3.73;;;;;;;;;;5079793;28;20616;-62
2023/07/16 10:05:42;;;;;;;6.63;3.80;;;;;;;;;;5078872;28;20459;-63
2023/07/16 10:08:16;;;;;;;5.77;4.00;;;;;;;;;;5079197;28;20868;-63
2023/07/16 10:10:44;;;;;;;5.33;3.87;;;;;;;;;;5079521;28;20490;-63
2023/07/16 10:13:12;;;;;;;5.20;3.40;;;;;;;;;;5079512;28;20520;-63
2023/07/16 10:15:39;;;;;;;3.47;3.17;;;;;;;;;;5079546;28;20458;-63
2023/07/16 10:18:06;;;;;;;4.50;3.80;;;;;;;;;;5080131;28;20559;-63
2023/07/16 10:20:34;;;;;;;5.43;3.87;;;;;;;;;;5079665;28;20534;-63
2023/07/16 10:23:11;;;;;;;5.10;3.63;;;;;;;;;;5078555;28;20464;-63
2023/07/16 10:25:37;;;;;;;6.10;3.50;;;;;;;;;;5080229;28;20450;-63
2023/07/16 10:28:04;;;;;;;5.13;3.40;;;;;;;;;;5079976;28;20452;-63
2023/07/16 10:30:31;;;;;;;6.10;3.43;;;;;;;;;;5079041;28;20491;-63
2023/07/16 10:32:57;;;;;;;5.20;3.63;;;;;;;;;;5079450;28;20510;-63
2023/07/16 10:35:24;;;;;;;6.90;3.40;;;;;;;;;;5078170;28;20509;-63
2023/07/16 10:37:52;;;;;;;4.50;3.40;;;;;;;;;;5078275;28;20457;-61
2023/07/16 10:40:18;;;;;;;5.20;3.57;;;;;;;;;;5079438;28;20479;-63
2023/07/16 10:42:46;;;;;;;6.43;4.00;;;;;;;;;;5079138;28;20484;-63
2023/07/16 10:45:13;;;;;;;6.57;3.37;;;;;;;;;;5079375;28;20480;-63
2023/07/16 10:47:41;;;;;;;5.00;3.57;;;;;;;;;;5079673;28;20490;-63
2023/07/16 10:50:08;;;;;;;5.20;3.87;;;;;;;;;;5079336;28;20512;-64
2023/07/16 10:52:35;;;;;;;4.30;3.03;;;;;;;;;;5078147;28;20460;-63
2023/07/16 10:55:03;;;;;;;5.53;3.60;;;;;;;;;;5079610;28;20472;-63
2023/07/16 10:57:29;;;;;;;5.97;3.30;;;;;;;;;;5079564;28;20476;-63
2023/07/16 10:59:58;;;;;;;5.20;3.43;;;;;;;;;;5078726;28;20531;-63
2023/07/16 11:02:26;;;;;;;3.93;3.20;;;;;;;;;;5079287;28;20849;-63
2023/07/16 11:04:53;;;;;;;5.37;4.00;;;;;;;;;;5079147;28;20570;-63
2023/07/16 11:07:20;;;;;;;5.90;3.87;;;;;;;;;;5077723;28;20470;-63
2023/07/16 11:09:51;;;;;;;5.30;3.67;;;;;;;;;;5079124;28;20487;-63
2023/07/16 11:12:20;;;;;;;4.77;3.00;;;;;;;;;;5073981;28;20464;-63
2023/07/16 11:14:46;;;;;;;5.00;2.77;;;;;;;;;;5078536;28;20436;-63
2023/07/16 11:17:13;;;;;;;7.20;3.00;;;;;;;;;;5079185;28;20476;-63
2023/07/16 11:19:40;;;;;;;7.50;4.30;;;;;;;;;;5079552;28;20480;-63
2023/07/16 11:22:07;;;;;;;7.17;4.00;;;;;;;;;;5078847;28;20447;-63
2023/07/16 11:24:37;;;;;;;5.90;3.80;;;;;;;;;;5079319;28;20529;-63
2023/07/16 11:27:04;;;;;;;7.83;3.43;;;;;;;;;;5079062;28;21175;-63
2023/07/16 11:29:36;;;;;;;5.47;3.47;;;;;;;;;;5078456;28;20502;-63
2023/07/16 11:32:03;;;;;;;6.87;3.80;;;;;;;;;;5078980;28;20454;-63
2023/07/16 11:34:29;;;;;;;6.13;3.60;;;;;;;;;;5078885;28;20917;-63
2023/07/16 11:36:56;;;;;;;7.00;3.40;;;;;;;;;;5077296;28;20480;-63
2023/07/16 11:39:25;;;;;;;7.97;4.33;;;;;;;;;;5079154;28;20451;-63
2023/07/16 11:41:54;;;;;;;4.87;3.27;;;;;;;;;;5071949;28;20451;-61
2023/07/16 11:44:21;;;;;;;9.13;3.73;;;;;;;;;;5066560;28;20464;-63
2023/07/16 11:46:49;;;;;;;5.23;3.63;;;;;;;;;;5079235;28;20617;-64
2023/07/16 11:49:15;;;;;;;5.00;3.60;;;;;;;;;;5079175;28;20458;-62
2023/07/16 11:51:43;;;;;;;5.97;3.87;;;;;;;;;;5077624;28;20480;-64
2023/07/16 11:54:09;;;;;;;4.67;3.80;;;;;;;;;;5078981;28;20535;-63
2023/07/16 11:56:36;;;;;;;5.70;3.90;;;;;;;;;;5078923;28;20475;-65
2023/07/16 11:59:02;;;;;;;4.80;3.77;;;;;;;;;;5078456;28;20464;-63
2023/07/16 12:01:29;;;;;;;5.40;4.30;;;;;;;;;;5082692;28;20527;-63
2023/07/16 12:03:56;;;;;;;5.47;3.67;;;;;;;;;;5082018;28;20454;-63
2023/07/16 12:06:23;;;;;;;5.53;4.00;;;;;;;;;;5078527;28;20478;-61
2023/07/16 12:08:49;;;;;;;5.37;3.53;;;;;;;;;;5082009;28;20524;-62
2023/07/16 12:11:16;;;;;;;5.20;3.70;;;;;;;;;;5082006;28;20508;-62
2023/07/16 12:13:42;;;;;;;5.20;3.67;;;;;;;;;;5081715;28;20538;-63
2023/07/16 12:16:08;;;;;;;5.73;3.30;;;;;;;;;;5082651;28;20558;-62
2023/07/16 12:18:35;;;;;;;5.60;3.83;;;;;;;;;;5081714;28;20515;-62
2023/07/16 12:21:03;;;;;;;7.40;3.73;;;;;;;;;;5081238;28;20543;-62
2023/07/16 12:23:29;;;;;;;5.50;3.47;;;;;;;;;;5081713;28;20479;-62
2023/07/16 12:25:55;;;;;;;7.83;3.70;;;;;;;;;;5082020;28;20514;-64
2023/07/16 12:28:22;;;;;;;5.37;3.27;;;;;;;;;;5081013;28;20503;-62
2023/07/16 12:30:48;;;;;;;5.60;4.03;;;;;;;;;;5081596;28;20464;-62
2023/07/16 12:33:15;;;;;;;5.57;2.90;;;;;;;;;;5081404;28;20800;-63
2023/07/16 12:35:41;;;;;;;5.30;3.43;;;;;;;;;;5079942;28;20555;-62
2023/07/16 12:38:09;;;;;;;9.80;3.10;;;;;;;;;;5081509;28;20482;-63
2023/07/16 12:40:39;;;;;;;4.10;3.10;;;;;;;;;;5072138;28;20574;-62
2023/07/16 12:43:06;;;;;;;6.40;2.97;;;;;;;;;;5074986;28;20460;-61
2023/07/16 12:45:32;;;;;;;6.20;3.43;;;;;;;;;;5072248;28;20567;-62
2023/07/16 12:47:58;;;;;;;4.90;3.10;;;;;;;;;;5074313;28;20976;-62
2023/07/16 12:50:25;;;;;;;6.97;3.90;;;;;;;;;;5069740;28;20486;-62
2023/07/16 12:52:52;;;;;;;6.17;3.80;;;;;;;;;;5076661;28;20464;-62
2023/07/16 12:55:20;;;;;;;4.53;3.10;;;;;;;;;;5075453;28;20477;-62
2023/07/16 12:57:46;;;;;;;6.77;3.70;;;;;;;;;;5072442;28;20447;-62
2023/07/16 13:00:13;;;;;;;4.90;4.03;;;;;;;;;;5078143;28;20462;-62
2023/07/16 13:02:39;;;;;;;6.40;3.40;;;;;;;;;;5080486;28;20487;-62
2023/07/16 13:05:06;;;;;;;5.73;3.57;;;;;;;;;;5079857;28;20529;-62
2023/07/16 13:07:32;;;;;;;4.57;3.00;;;;;;;;;;5080200;28;20490;-62
2023/07/16 13:09:58;;;;;;;3.77;3.30;;;;;;;;;;5080939;28;20448;-63
2023/07/16 13:12:26;;;;;;;4.27;3.40;;;;;;;;;;5080179;28;21131;-64
2023/07/16 13:14:53;;;;;;;4.10;3.60;;;;;;;;;;5081060;28;20536;-62
2023/07/16 13:17:19;;;;;;;4.10;3.17;;;;;;;;;;5080806;28;20972;-62
2023/07/16 13:19:46;;;;;;;5.60;4.03;;;;;;;;;;5080068;28;20480;-61
2023/07/16 13:22:12;;;;;;;5.87;3.10;;;;;;;;;;5080100;28;20472;-61
2023/07/16 13:24:38;;;;;;;3.73;3.00;;;;;;;;;;5080370;28;20512;-61
2023/07/16 13:27:05;;;;;;;5.30;3.20;;;;;;;;;;5080088;28;20500;-62
2023/07/16 13:29:33;;;;;;;4.67;3.17;;;;;;;;;;5080598;28;20515;-61
2023/07/16 13:31:59;;;;;;;4.90;2.83;;;;;;;;;;5079532;28;20540;-64
2023/07/16 13:34:25;;;;;;;6.50;3.07;;;;;;;;;;5079945;28;20555;-61
2023/07/16 13:36:52;;;;;;;4.23;2.57;;;;;;;;;;5076765;28;20495;-61
2023/07/16 13:39:19;;;;;;;5.40;2.90;;;;;;;;;;5079710;28;20976;-61
2023/07/16 13:41:45;;;;;;;4.60;2.90;;;;;;;;;;5080138;28;20816;-61
2023/07/16 13:44:12;;;;;;;6.37;3.03;;;;;;;;;;5079975;28;20448;-61
2023/07/16 13:46:40;;;;;;;5.60;3.07;;;;;;;;;;5080619;28;20450;-61
2023/07/16 13:49:07;;;;;;;7.30;3.37;;;;;;;;;;5079578;28;20452;-61
2023/07/16 13:51:33;;;;;;;4.53;2.73;;;;;;;;;;5079660;28;20514;-62
2023/07/16 13:53:59;;;;;;;4.13;2.50;;;;;;;;;;5080236;28;20498;-61
2023/07/16 13:56:26;;;;;;;5.00;2.60;;;;;;;;;;5079887;28;20528;-61
2023/07/16 13:58:53;;;;;;;4.23;2.73;;;;;;;;;;5079933;28;20543;-61
2023/07/16 14:01:20;;;;;;;3.87;2.73;;;;;;;;;;5079678;28;20448;-61
2023/07/16 14:03:48;;;;;;;6.53;3.37;;;;;;;;;;5079814;28;20499;-61
2023/07/16 14:06:14;;;;;;;2.97;2.50;;;;;;;;;;5079012;28;20533;-61
2023/07/16 14:08:40;;;;;;;4.37;2.60;;;;;;;;;;5079625;28;20454;-61
2023/07/16 14:11:07;;;;;;;5.67;2.90;;;;;;;;;;5079121;28;20517;-62
2023/07/16 14:13:33;;;;;;;4.17;3.00;;;;;;;;;;5080234;28;20455;-62
2023/07/16 14:16:00;;;;;;;5.63;3.17;;;;;;;;;;5080434;28;20444;-62
2023/07/16 14:18:26;;;;;;;7.67;3.20;;;;;;;;;;5079430;28;20494;-62
2023/07/16 14:20:56;;;;;;;7.27;3.17;;;;;;;;;;5079755;28;20487;-61
2023/07/16 14:23:22;;;;;;;5.63;3.00;;;;;;;;;;5076496;28;20460;-62
2023/07/16 14:25:48;;;;;;;4.20;2.97;;;;;;;;;;5078871;28;20526;-62
2023/07/16 14:28:15;;;;;;;4.20;3.00;;;;;;;;;;5079203;28;20491;-61
2023/07/16 14:30:41;;;;;;;3.50;2.90;;;;;;;;;;5079495;28;20486;-62
2023/07/16 14:33:08;;;;;;;4.97;3.60;;;;;;;;;;5078237;28;20454;-61
2023/07/16 14:35:34;;;;;;;6.17;3.30;;;;;;;;;;5078969;28;20472;-61
2023/07/16 14:38:02;;;;;;;5.50;3.20;;;;;;;;;;5078609;28;20587;-62
2023/07/16 14:40:29;;;;;;;6.90;3.63;;;;;;;;;;5072189;28;20487;-63